Time;durP1;ratioP1;P1;durP2;ratioP2;P2;SDS_P1;SDS_P2;PMS_P1;PMS_P2;Temp;Humidity;BMP_temperature;BMP_pressure;BME280_temperature;BME280_humidity;BME280_pressure;Samples;Min_cycle;Max_cycle;Signal;HPM_P1;HPM_P2
2021/07/26 00:02:14;;;;;;;6.70;6.10;;;17.60;99.90;;;;;;4981299;28;20465;-58
2021/07/26 00:04:41;;;;;;;5.97;5.50;;;17.70;99.90;;;;;;4971800;28;20516;-56
2021/07/26 00:07:09;;;;;;;8.10;5.30;;;17.60;99.90;;;;;;4980828;28;20450;-58
2021/07/26 00:09:36;;;;;;;8.37;6.07;;;17.70;99.90;;;;;;4980722;28;20770;-58
2021/07/26 00:12:06;;;;;;;6.60;6.00;;;17.60;1.00;;;;;;4980793;28;20466;-58
2021/07/26 00:14:33;;;;;;;6.27;5.67;;;17.60;99.90;;;;;;4980525;28;20470;-58
2021/07/26 00:17:01;;;;;;;6.27;5.67;;;17.60;99.90;;;;;;4980766;28;20472;-56
2021/07/26 00:19:28;;;;;;;9.10;6.03;;;17.50;99.90;;;;;;4980541;28;20498;-53
2021/07/26 00:21:55;;;;;;;6.73;6.13;;;17.50;29.60;;;;;;4980791;28;20462;-56
2021/07/26 00:24:22;;;;;;;6.63;6.00;;;17.40;99.90;;;;;;4981018;28;20469;-57
2021/07/26 00:26:49;;;;;;;5.60;5.03;;;17.50;1.00;;;;;;4980995;28;20750;-56
2021/07/26 00:29:18;;;;;;;9.17;6.20;;;17.50;8.70;;;;;;4980686;28;20468;-56
2021/07/26 00:31:46;;;;;;;7.23;6.40;;;17.50;99.90;;;;;;4980879;28;20516;-56
2021/07/26 00:34:20;;;;;;;6.90;6.30;;;17.50;1.00;;;;;;4980726;28;20465;-56
2021/07/26 00:36:49;;;;;;;8.43;6.30;;;17.50;1.00;;;;;;4981022;28;20536;-58
2021/07/26 00:39:18;;;;;;;7.93;7.10;;;17.50;1.00;;;;;;4980562;28;20490;-58
2021/07/26 00:41:47;;;;;;;6.83;6.10;;;17.40;99.90;;;;;;4980739;28;20771;-57
2021/07/26 00:44:15;;;;;;;6.63;6.03;;;17.40;1.00;;;;;;4980953;28;20786;-57
2021/07/26 00:46:44;;;;;;;6.10;5.47;;;17.40;99.90;;;;;;4980191;28;20470;-57
2021/07/26 00:49:12;;;;;;;6.50;5.90;;;17.30;1.00;;;;;;4980676;28;20457;-58
2021/07/26 00:51:42;;;;;;;6.17;5.67;;;17.40;5.10;;;;;;4979921;28;20441;-55
2021/07/26 00:54:11;;;;;;;7.23;6.60;;;17.40;99.90;;;;;;4980842;28;20901;-55
2021/07/26 00:56:39;;;;;;;8.53;6.80;;;17.40;1.00;;;;;;4980389;28;20472;-57
2021/07/26 00:59:06;;;;;;;5.77;5.27;;;17.40;99.90;;;;;;4980071;28;20501;-57
2021/07/26 01:01:34;;;;;;;7.37;6.67;;;17.40;2.20;;;;;;4980272;28;20942;-59
2021/07/26 01:04:05;;;;;;;6.90;6.20;;;17.50;1.00;;;;;;4980956;28;20458;-58
2021/07/26 01:06:36;;;;;;;5.90;5.40;;;17.50;1.00;;;;;;4973006;28;20473;-59
2021/07/26 01:09:04;;;;;;;5.70;5.10;;;17.50;99.90;;;;;;4976003;28;20478;-59
2021/07/26 01:11:31;;;;;;;6.03;5.43;;;17.40;1.00;;;;;;4963181;28;20460;-57
2021/07/26 01:13:58;;;;;;;6.53;5.93;;;17.50;99.90;;;;;;4980074;28;20470;-58
2021/07/26 01:16:27;;;;;;;7.30;5.50;;;17.40;99.90;;;;;;4979122;28;20528;-57
2021/07/26 01:18:54;;;;;;;8.40;6.30;;;17.40;99.90;;;;;;4979855;28;20493;-58
2021/07/26 01:21:23;;;;;;;6.20;5.10;;;17.30;99.90;;;;;;4979616;28;20783;-57
2021/07/26 01:23:51;;;;;;;6.43;5.37;;;17.30;27.00;;;;;;4979396;28;20902;-58
2021/07/26 01:26:21;;;;;;;5.60;5.10;;;17.30;92.20;;;;;;4979845;28;20465;-55
2021/07/26 01:28:51;;;;;;;7.90;6.17;;;17.30;99.90;;;;;;4979356;28;20489;-53
2021/07/26 01:31:18;;;;;;;6.33;5.73;;;17.20;99.90;;;;;;4979387;28;20998;-59
2021/07/26 01:33:46;;;;;;;6.17;5.57;;;17.20;99.90;;;;;;4979637;28;20487;-54
2021/07/26 01:36:15;;;;;;;6.30;5.30;;;17.10;1.00;;;;;;4979161;28;20479;-56
2021/07/26 01:38:45;;;;;;;6.43;5.47;;;17.00;1.00;;;;;;4979518;28;20526;-57
2021/07/26 01:44:34;;;;;;;5.40;4.87;;;16.90;99.90;;;;;;4978807;28;20858;-58
2021/07/26 01:47:04;;;;;;;6.83;5.83;;;17.00;29.20;;;;;;4979157;28;20472;-58
2021/07/26 01:49:53;;;;;;;6.43;5.57;;;17.00;99.90;;;;;;4979331;28;20468;-55
2021/07/26 01:52:21;;;;;;;8.00;6.23;;;17.00;1.00;;;;;;4978721;28;20446;-59
2021/07/26 01:54:49;;;;;;;6.53;5.93;;;17.00;99.90;;;;;;4979416;28;20957;-56
2021/07/26 01:57:18;;;;;;;7.40;5.83;;;17.00;99.90;;;;;;4978774;28;20906;-58
2021/07/26 01:59:46;;;;;;;6.53;5.60;;;17.00;1.00;;;;;;4979141;28;20830;-58
2021/07/26 02:02:14;;;;;;;5.73;5.13;;;17.00;99.90;;;;;;4978706;28;20466;-55
2021/07/26 02:04:41;;;;;;;6.13;5.53;;;17.00;1.00;;;;;;4969467;28;20474;-53
2021/07/26 02:07:08;;;;;;;6.53;5.93;;;16.90;1.00;;;;;;4978179;28;20454;-58
2021/07/26 02:09:35;;;;;;;6.63;5.80;;;17.00;99.90;;;;;;4978716;28;20764;-59
2021/07/26 02:12:07;;;;;;;8.10;5.17;;;17.00;1.00;;;;;;4979097;28;20465;-59
2021/07/26 02:14:34;;;;;;;7.10;5.97;;;17.00;1.00;;;;;;4978400;28;20470;-59
2021/07/26 02:17:01;;;;;;;7.00;6.00;;;17.00;99.90;;;;;;4978824;28;20899;-55
2021/07/26 02:19:28;;;;;;;5.93;5.33;;;16.90;99.90;;;;;;4978927;28;20496;-58
2021/07/26 02:21:56;;;;;;;5.70;5.20;;;16.90;18.30;;;;;;4978982;28;20752;-57
2021/07/26 02:24:23;;;;;;;6.57;5.97;;;16.90;1.00;;;;;;4978321;28;20472;-56
2021/07/26 02:26:50;;;;;;;6.60;5.33;;;16.80;1.00;;;;;;4978275;28;20466;-55
2021/07/26 02:29:18;;;;;;;6.70;5.50;;;16.80;99.90;;;;;;4978357;28;20500;-58
2021/07/26 02:31:46;;;;;;;6.40;5.47;;;16.80;1.00;;;;;;4979075;28;20533;-57
2021/07/26 02:34:13;;;;;;;6.17;5.57;;;16.80;11.40;;;;;;4978336;28;20470;-55
2021/07/26 02:36:40;;;;;;;7.33;5.70;;;16.80;1.00;;;;;;4978034;28;20478;-57
2021/07/26 02:39:07;;;;;;;5.80;5.30;;;16.80;1.00;;;;;;4978313;28;20560;-59
2021/07/26 02:41:34;;;;;;;6.83;5.03;;;16.80;1.00;;;;;;4978495;28;20466;-55
2021/07/26 02:44:01;;;;;;;6.50;5.90;;;16.70;1.00;;;;;;4978212;28;20469;-55
2021/07/26 02:46:30;;;;;;;5.60;5.10;;;16.80;99.90;;;;;;4978362;28;20957;-54
2021/07/26 02:48:57;;;;;;;6.53;5.77;;;16.80;1.00;;;;;;4978365;28;20774;-55
2021/07/26 02:51:24;;;;;;;6.10;5.50;;;16.80;99.90;;;;;;4978562;28;20466;-58
2021/07/26 02:53:51;;;;;;;6.20;5.70;;;16.80;1.00;;;;;;4978130;28;20473;-57
2021/07/26 02:56:19;;;;;;;5.70;5.20;;;16.80;99.90;;;;;;4978581;28;20469;-53
2021/07/26 02:58:46;;;;;;;6.00;5.50;;;16.80;1.00;;;;;;4979135;28;20465;-58
2021/07/26 03:01:13;;;;;;;6.40;5.80;;;16.80;1.00;;;;;;4978363;28;20466;-56
2021/07/26 03:03:42;;;;;;;6.53;5.93;;;16.80;93.10;;;;;;4971601;28;20903;-58
2021/07/26 03:06:19;;;;;;;6.30;5.70;;;16.70;1.00;;;;;;4975675;28;20555;-58
2021/07/26 03:08:46;;;;;;;6.53;5.40;;;16.70;1.00;;;;;;4977980;28;20449;-57
2021/07/26 03:11:14;;;;;;;7.03;5.20;;;16.70;1.00;;;;;;4978327;28;20465;-57
2021/07/26 03:13:44;;;;;;;5.83;5.40;;;16.70;18.10;;;;;;4977725;28;20824;-58
2021/07/26 03:16:13;;;;;;;6.93;5.60;;;16.60;1.00;;;;;;4978594;28;20472;-58
2021/07/26 03:56:10;;;;;;;7.00;6.30;;;16.70;99.90;;;;;;4073552;23;20835;-58
2021/07/26 03:58:37;;;;;;;6.33;5.40;;;16.70;99.90;;;;;;4981378;28;20463;-59
2021/07/26 04:01:04;;;;;;;7.10;6.33;;;16.70;99.90;;;;;;4980896;28;20501;-59
2021/07/26 04:03:32;;;;;;;7.13;5.50;;;16.70;99.90;;;;;;4974378;28;20488;-59
2021/07/26 04:06:04;;;;;;;6.33;5.73;;;16.80;38.60;;;;;;4978047;28;20540;-59
2021/07/26 04:08:34;;;;;;;6.47;5.93;;;16.80;99.90;;;;;;4964725;28;20454;-59
2021/07/26 04:11:05;;;;;;;6.30;5.77;;;16.80;1.00;;;;;;4981615;28;20524;-59
2021/07/26 04:13:35;;;;;;;6.40;5.90;;;16.90;99.90;;;;;;4980994;28;20469;-59
2021/07/26 04:16:03;;;;;;;6.03;5.53;;;17.00;1.00;;;;;;4981486;28;20469;-59
2021/07/26 04:18:30;;;;;;;6.93;6.27;;;17.00;1.00;;;;;;4981407;28;20444;-59
2021/07/26 04:20:57;;;;;;;5.70;5.20;;;17.00;99.90;;;;;;4980221;28;20533;-59
2021/07/26 04:23:24;;;;;;;6.37;5.77;;;17.10;1.00;;;;;;4980591;28;20445;-59
2021/07/26 04:25:51;;;;;;;6.63;5.63;;;17.10;1.00;;;;;;4980620;28;20473;-59
2021/07/26 04:28:18;;;;;;;6.90;5.57;;;17.20;99.90;;;;;;4981006;28;20564;-59
2021/07/26 04:30:47;;;;;;;6.30;5.70;;;17.20;99.90;;;;;;4980696;28;20791;-59
2021/07/26 04:33:14;;;;;;;6.40;5.90;;;17.10;1.00;;;;;;4981232;28;20462;-59
2021/07/26 04:35:41;;;;;;;7.07;5.90;;;17.20;1.00;;;;;;4980468;28;20466;-59
2021/07/26 05:15:17;;;;;;;9.17;6.93;;;18.30;99.90;;;;;;5174399;23;20604;-57
2021/07/26 05:17:44;;;;;;;7.03;5.77;;;18.40;99.90;;;;;;4979266;28;20465;-57
2021/07/26 05:20:12;;;;;;;7.00;5.50;;;18.50;1.00;;;;;;4979622;28;20497;-58
2021/07/26 05:22:40;;;;;;;5.73;5.27;;;18.60;1.00;;;;;;4979571;28;20465;-57
2021/07/26 05:25:08;;;;;;;8.43;5.73;;;18.70;99.90;;;;;;4979129;28;20465;-58
2021/07/26 05:27:35;;;;;;;6.37;5.70;;;18.80;1.00;;;;;;4979280;28;20466;-57
2021/07/26 05:30:04;;;;;;;5.80;5.33;;;18.90;1.00;;;;;;4979449;28;20811;-55
2021/07/26 05:32:33;;;;;;;7.50;6.10;;;18.90;99.90;;;;;;4980185;28;20466;-56
2021/07/26 05:35:00;;;;;;;6.27;5.43;;;19.00;99.90;;;;;;4979297;28;20569;-55
2021/07/26 05:37:27;;;;;;;7.00;5.43;;;19.10;99.90;;;;;;4979845;28;20468;-55
2021/07/26 05:39:54;;;;;;;6.53;5.93;;;19.10;99.90;;;;;;4979578;28;20489;-55
2021/07/26 05:42:21;;;;;;;5.33;4.83;;;19.10;90.10;;;;;;4979728;28;20466;-57
2021/07/26 05:44:48;;;;;;;5.57;5.17;;;19.20;1.00;;;;;;4978919;28;20524;-56
2021/07/26 05:47:15;;;;;;;9.10;6.37;;;19.30;1.00;;;;;;4979651;28;20462;-56
2021/07/26 05:49:44;;;;;;;7.00;5.43;;;19.50;1.00;;;;;;4978799;28;20520;-56
2021/07/26 05:52:11;;;;;;;5.87;5.40;;;19.60;1.00;;;;;;4979908;28;20833;-57
2021/07/26 05:54:38;;;;;;;5.67;5.17;;;19.60;99.90;;;;;;4978772;28;20492;-55
2021/07/26 05:57:10;;;;;;;6.10;5.60;;;19.70;99.90;;;;;;4979336;28;20477;-57
2021/07/26 05:59:37;;;;;;;6.20;5.70;;;19.60;99.90;;;;;;4979001;28;20497;-56
2021/07/26 06:02:05;;;;;;;7.30;5.33;;;19.70;99.90;;;;;;4978839;28;20476;-56
2021/07/26 06:04:34;;;;;;;5.33;4.83;;;19.90;99.90;;;;;;4970151;28;20495;-57
2021/07/26 06:07:02;;;;;;;5.90;5.30;;;19.90;99.90;;;;;;4978797;28;20902;-56
2021/07/26 06:09:30;;;;;;;6.10;5.00;;;19.90;99.90;;;;;;4978029;28;20812;-56
2021/07/26 06:11:57;;;;;;;5.83;5.33;;;20.00;99.90;;;;;;4978597;28;20492;-55
2021/07/26 06:14:25;;;;;;;5.13;4.63;;;20.10;99.90;;;;;;4978162;28;20504;-56
2021/07/26 06:56:19;;;;;;;5.00;4.60;;;23.10;99.90;;;;;;4994969;28;20575;-53
2021/07/26 06:58:46;;;;;;;4.97;4.57;;;23.30;99.90;;;;;;4997879;28;20461;-56
2021/07/26 07:01:15;;;;;;;5.20;4.73;;;23.40;99.90;;;;;;4997574;28;20500;-52
2021/07/26 07:03:42;;;;;;;4.93;4.63;;;23.40;99.90;;;;;;4987680;28;20866;-57
2021/07/26 07:06:12;;;;;;;6.20;4.30;;;23.50;99.90;;;;;;4978938;28;20484;-54
2021/07/26 07:08:40;;;;;;;4.13;3.83;;;23.30;99.90;;;;;;4978780;28;20871;-53
2021/07/26 07:11:11;;;;;;;4.40;4.00;;;23.50;99.90;;;;;;4978241;28;20469;-54
2021/07/26 07:13:41;;;;;;;4.50;4.20;;;23.50;99.90;;;;;;4978493;28;20461;-53
2021/07/26 07:16:09;;;;;;;5.00;4.60;;;23.20;99.90;;;;;;4978244;28;20470;-55
2021/07/26 07:18:36;;;;;;;5.20;4.33;;;23.10;99.90;;;;;;4978220;28;20470;-55
2021/07/26 07:21:04;;;;;;;4.70;4.30;;;23.20;99.90;;;;;;4978470;28;20505;-55
2021/07/26 07:23:32;;;;;;;4.80;4.40;;;23.00;99.90;;;;;;4980542;28;20782;-55
2021/07/26 08:03:56;;;;;;;5.03;4.13;;;23.10;99.90;;;;;;5481217;23;20471;31
2021/07/26 08:06:31;;;;;;;4.87;4.37;;;23.20;99.90;;;;;;4977574;28;20452;-55
2021/07/26 08:08:58;;;;;;;4.90;4.43;;;23.00;99.90;;;;;;4981722;28;20464;-51
2021/07/26 08:11:25;;;;;;;6.60;5.07;;;23.20;99.90;;;;;;4980749;28;20465;-52
2021/07/26 08:13:52;;;;;;;5.00;4.60;;;23.50;99.90;;;;;;4980893;28;20462;-52
2021/07/26 08:16:23;;;;;;;5.20;4.80;;;24.00;99.90;;;;;;4981170;28;20520;-53
2021/07/26 08:18:50;;;;;;;4.83;4.43;;;24.80;99.90;;;;;;4979999;28;20476;-57
2021/07/26 08:21:17;;;;;;;5.03;4.67;;;25.10;96.90;;;;;;4980036;28;20465;-56
2021/07/26 08:23:46;;;;;;;3.90;3.60;;;24.60;95.20;;;;;;4980492;28;20440;-48
2021/07/26 08:26:13;;;;;;;4.70;4.30;;;24.70;95.50;;;;;;4980617;28;20462;-51
2021/07/26 08:28:40;;;;;;;6.10;5.60;;;24.90;95.70;;;;;;4979916;28;20473;-53
2021/07/26 08:31:07;;;;;;;6.20;4.67;;;24.80;95.20;;;;;;4980298;28;20471;-53
2021/07/26 08:33:34;;;;;;;5.73;5.23;;;25.10;94.70;;;;;;4980500;28;20548;-58
2021/07/26 08:36:02;;;;;;;5.33;4.83;;;25.10;93.70;;;;;;4980898;28;20472;-56
2021/07/26 08:38:29;;;;;;;5.63;5.10;;;24.60;93.10;;;;;;4980309;28;20769;-56
2021/07/26 08:40:57;;;;;;;4.57;4.20;;;24.20;94.40;;;;;;4980045;28;20498;-54
2021/07/26 08:43:24;;;;;;;6.13;5.53;;;24.20;95.60;;;;;;4980652;28;20472;-53
2021/07/26 08:45:52;;;;;;;5.63;4.07;;;24.50;93.80;;;;;;4980642;28;20898;-53
2021/07/26 08:48:19;;;;;;;5.13;4.73;;;25.20;92.20;;;;;;4980034;28;20469;-58
2021/07/26 08:50:50;;;;;;;4.60;4.30;;;25.10;90.50;;;;;;4979909;28;20472;-57
2021/07/26 08:53:22;;;;;;;6.20;4.80;;;24.40;92.30;;;;;;4980285;28;20473;-55
2021/07/26 08:55:49;;;;;;;5.53;5.13;;;23.90;93.80;;;;;;4980487;28;20497;-52
2021/07/26 08:58:18;;;;;;;4.83;4.43;;;23.70;96.60;;;;;;4979332;28;20600;-54
2021/07/26 09:00:45;;;;;;;4.90;4.50;;;24.60;99.90;;;;;;4980323;28;20783;-56
2021/07/26 09:03:14;;;;;;;4.33;4.03;;;25.70;94.00;;;;;;4976252;28;20486;-57
2021/07/26 09:05:43;;;;;;;5.63;5.13;;;26.60;90.10;;;;;;4979015;28;20988;-54
2021/07/26 09:08:13;;;;;;;5.50;5.00;;;27.30;86.20;;;;;;4978245;28;20899;-51
2021/07/26 09:10:44;;;;;;;4.70;3.97;;;26.90;83.00;;;;;;4978062;28;20451;-54
2021/07/26 09:13:32;;;;;;;4.97;4.47;;;26.20;83.70;;;;;;4977536;28;20453;-57
2021/07/26 09:16:14;;;;;;;4.83;4.53;;;25.20;85.60;;;;;;4977784;28;20469;-56
2021/07/26 09:18:42;;;;;;;4.97;4.57;;;24.20;91.40;;;;;;4978070;28;20465;-55
2021/07/26 09:21:09;;;;;;;5.10;4.70;;;23.70;93.30;;;;;;4977969;28;20489;-55
2021/07/26 09:23:39;;;;;;;4.77;4.37;;;23.50;95.40;;;;;;4977754;28;20911;-54
2021/07/26 09:26:30;;;;;;;6.33;5.33;;;23.80;98.00;;;;;;4975988;28;20466;-58
2021/07/26 09:28:57;;;;;;;5.33;4.90;;;24.10;95.30;;;;;;4977653;28;20458;-51
2021/07/26 10:08:35;;;;;;;4.63;4.23;;;24.90;90.10;;;;;;4427862;23;20531;-58
2021/07/26 10:11:06;;;;;;;9.20;4.77;;;24.70;90.40;;;;;;5018976;28;20469;-58
2021/07/26 10:13:34;;;;;;;5.07;4.60;;;24.60;91.00;;;;;;5016769;28;20833;-57
2021/07/26 10:16:04;;;;;;;5.60;4.70;;;24.80;91.00;;;;;;5016977;28;20988;-58
2021/07/26 10:18:31;;;;;;;5.13;4.73;;;25.20;91.20;;;;;;5016993;28;20464;-56
2021/07/26 10:21:02;;;;;;;5.03;4.63;;;25.50;90.40;;;;;;5016970;28;20496;-51
2021/07/26 10:23:35;;;;;;;5.17;4.77;;;26.00;88.10;;;;;;4998957;28;20806;-57
2021/07/26 10:26:06;;;;;;;5.20;4.80;;;26.50;84.30;;;;;;5016766;28;20528;-58
2021/07/26 10:28:37;;;;;;;8.53;5.70;;;26.30;83.10;;;;;;5015523;28;20751;-55
2021/07/26 10:31:35;;;;;;;7.57;4.87;;;26.60;83.80;;;;;;5017339;28;20468;-56
2021/07/26 10:34:03;;;;;;;16.93;9.40;;;27.30;83.00;;;;;;5017596;28;20468;-59
2021/07/26 10:36:55;;;;;;;5.27;4.53;;;27.50;76.60;;;;;;5016995;28;20435;-56
2021/07/26 10:39:27;;;;;;;4.17;3.87;;;27.40;74.70;;;;;;5016009;28;20821;-60
2021/07/26 10:42:06;;;;;;;4.93;4.43;;;27.20;73.50;;;;;;5016743;28;20496;-57
2021/07/26 10:44:48;;;;;;;4.30;4.00;;;27.10;74.60;;;;;;5015918;28;20484;-60
2021/07/26 10:47:19;;;;;;;4.97;4.47;;;27.00;75.60;;;;;;5008938;28;20469;-59
2021/07/26 10:50:25;;;;;;;4.60;4.30;;;26.90;74.90;;;;;;5012095;28;20460;-59
2021/07/26 10:52:52;;;;;;;5.00;4.50;;;26.90;74.50;;;;;;5005371;28;20526;-59
2021/07/26 10:55:57;;;;;;;4.70;4.30;;;26.50;73.90;;;;;;5016230;28;20463;-59
2021/07/26 10:59:00;;;;;;;4.60;4.30;;;26.40;75.80;;;;;;5021750;28;20468;-57
2021/07/26 11:01:59;;;;;;;5.53;4.53;;;26.60;76.90;;;;;;5001873;28;20496;-59
2021/07/26 11:04:38;;;;;;;4.17;3.87;;;27.50;73.50;;;;;;5005988;28;20484;-57
2021/07/26 11:07:07;;;;;;;4.17;3.77;;;27.80;71.70;;;;;;5016735;28;20799;-60
2021/07/26 11:09:41;;;;;;;4.77;3.67;;;27.90;71.00;;;;;;5013454;28;20762;-59
2021/07/26 11:12:09;;;;;;;4.00;3.70;;;27.40;73.00;;;;;;5019838;28;20455;-60
2021/07/26 11:14:37;;;;;;;4.20;3.90;;;27.40;73.20;;;;;;5019607;28;20466;-59
2021/07/26 11:17:08;;;;;;;4.50;4.13;;;27.40;71.20;;;;;;5020221;28;20531;-60
2021/07/26 11:19:58;;;;;;;4.50;4.07;;;27.60;71.50;;;;;;5019475;28;20551;-60
2021/07/26 11:22:59;;;;;;;4.60;4.20;;;27.90;70.50;;;;;;5018418;28;20499;-59
2021/07/26 11:25:35;;;;;;;4.07;3.77;;;27.60;69.60;;;;;;5017829;28;20524;-59
2021/07/26 11:28:02;;;;;;;3.90;3.60;;;28.00;68.30;;;;;;5020034;28;20465;-56
2021/07/26 11:30:32;;;;;;;3.30;3.10;;;28.00;66.00;;;;;;5020725;28;20940;-54
2021/07/26 11:33:04;;;;;;;4.20;3.83;;;27.80;66.30;;;;;;5019689;28;20886;-51
2021/07/26 11:35:32;;;;;;;3.20;3.00;;;28.20;66.00;;;;;;5019197;28;20490;-57
2021/07/26 11:38:07;;;;;;;4.17;3.97;;;27.90;63.90;;;;;;5020334;28;20494;-57
2021/07/26 11:40:37;;;;;;;3.90;3.60;;;27.50;66.10;;;;;;5018277;28;20462;-56
2021/07/26 11:43:04;;;;;;;4.30;3.90;;;27.30;66.30;;;;;;5022657;28;20471;-56
2021/07/26 11:45:32;;;;;;;4.13;3.83;;;27.70;67.30;;;;;;5007241;28;20459;-50
2021/07/26 11:48:06;;;;;;;4.40;4.10;;;28.00;66.30;;;;;;5004485;28;20468;-54
2021/07/26 11:50:38;;;;;;;3.60;3.40;;;28.40;65.70;;;;;;5006841;28;20499;-57
2021/07/26 11:53:05;;;;;;;3.67;3.30;;;28.20;65.30;;;;;;5019822;28;20467;-58
2021/07/26 11:55:37;;;;;;;4.30;4.00;;;28.30;65.30;;;;;;5020232;28;20835;-54
2021/07/26 11:58:07;;;;;;;3.37;3.17;;;28.40;65.20;;;;;;5020376;28;20467;-56
2021/07/26 12:00:36;;;;;;;3.53;3.33;;;28.40;64.20;;;;;;5020355;28;20884;-58
2021/07/26 12:03:06;;;;;;;4.27;3.97;;;29.20;64.00;;;;;;5015664;28;20472;-57
2021/07/26 12:05:35;;;;;;;5.37;3.83;;;29.50;60.10;;;;;;5009307;28;20488;-55
2021/07/26 12:08:11;;;;;;;3.97;3.67;;;29.30;61.50;;;;;;5001798;28;20495;-55
2021/07/26 12:10:39;;;;;;;4.67;3.20;;;29.60;60.20;;;;;;5006845;28;20471;-56
2021/07/26 12:13:08;;;;;;;4.23;3.63;;;29.70;59.90;;;;;;5006385;28;20781;-54
2021/07/26 12:15:38;;;;;;;4.43;3.87;;;30.00;58.10;;;;;;5005931;28;20461;-58
2021/07/26 12:18:11;;;;;;;4.43;4.00;;;29.20;59.00;;;;;;4999875;28;20472;-59
2021/07/26 12:20:40;;;;;;;4.20;3.90;;;28.30;59.80;;;;;;4999955;28;20469;-55
2021/07/26 12:23:19;;;;;;;4.73;4.30;;;27.40;61.80;;;;;;5000317;28;20460;-54
2021/07/26 12:25:48;;;;;;;4.07;3.70;;;26.80;64.10;;;;;;4999952;28;20559;-57
2021/07/26 12:28:16;;;;;;;5.00;4.50;;;26.60;66.70;;;;;;5018642;28;20484;-57
2021/07/26 12:30:44;;;;;;;3.40;3.10;;;27.40;68.10;;;;;;5019652;28;20472;-57
2021/07/26 12:33:27;;;;;;;3.67;3.47;;;28.50;63.40;;;;;;5019978;28;20467;-56
2021/07/26 12:36:10;;;;;;;4.13;3.83;;;28.70;61.00;;;;;;5019267;28;20493;-57
2021/07/26 12:38:37;;;;;;;4.40;4.10;;;28.30;61.50;;;;;;5019388;28;20563;-58
2021/07/26 12:41:07;;;;;;;3.90;3.60;;;28.00;62.90;;;;;;5019420;28;20896;-55
2021/07/26 12:43:36;;;;;;;4.30;4.00;;;27.60;61.00;;;;;;5019429;28;20896;-58
2021/07/26 12:46:07;;;;;;;4.23;3.93;;;27.20;62.80;;;;;;5000135;28;20464;-55
2021/07/26 12:48:37;;;;;;;3.83;3.57;;;28.10;63.90;;;;;;5000125;28;20898;-57
2021/07/26 12:51:12;;;;;;;3.70;3.40;;;29.20;60.90;;;;;;4999621;28;20567;-56
2021/07/26 12:53:51;;;;;;;4.87;4.57;;;28.70;59.90;;;;;;4999582;28;20460;-58
2021/07/26 12:56:20;;;;;;;3.93;3.50;;;28.20;61.80;;;;;;4999671;28;20465;-55
2021/07/26 12:58:48;;;;;;;4.03;3.73;;;27.90;61.40;;;;;;4999860;28;20464;-58
2021/07/26 13:01:15;;;;;;;3.87;3.37;;;27.50;63.50;;;;;;5009034;28;20495;-56
2021/07/26 13:03:43;;;;;;;5.27;3.83;;;27.20;64.70;;;;;;5010169;28;20846;-57
2021/07/26 13:06:10;;;;;;;4.20;3.90;;;26.90;66.10;;;;;;5000544;28;20477;-57
2021/07/26 13:08:40;;;;;;;4.30;4.00;;;26.10;65.70;;;;;;4999685;28;20484;-51
2021/07/26 13:11:07;;;;;;;3.83;3.53;;;25.90;67.70;;;;;;5000738;28;20469;-55
2021/07/26 13:13:38;;;;;;;4.57;3.90;;;25.60;68.50;;;;;;5008257;28;20465;-55
2021/07/26 13:16:06;;;;;;;4.07;3.77;;;25.50;70.60;;;;;;4998989;28;20571;-57
2021/07/26 13:18:33;;;;;;;4.10;3.80;;;25.30;70.70;;;;;;5001832;28;20469;-56
2021/07/26 13:57:53;;;;;;;4.30;3.70;;;25.40;92.30;;;;;;5443252;23;20440;-60
2021/07/26 14:00:25;;;;;;;4.73;4.33;;;25.20;89.30;;;;;;5016339;28;20775;-57
2021/07/26 14:02:53;;;;;;;4.10;3.80;;;24.90;90.40;;;;;;5014307;28;21525;-60
2021/07/26 14:05:20;;;;;;;4.60;4.20;;;24.80;90.80;;;;;;5001042;28;20484;-58
2021/07/26 14:44:40;;;;;;;5.07;4.10;;;24.40;99.90;;;;;;3489006;23;20479;-61
2021/07/26 15:57:04;;;;;;;6.80;6.30;;;28.10;74.80;;;;;;5250254;23;20499;-58
2021/07/26 15:59:32;;;;;;;6.90;6.27;;;27.30;76.80;;;;;;5020342;28;20471;-58
2021/07/26 16:01:59;;;;;;;6.70;6.10;;;26.80;79.40;;;;;;5020207;28;20527;-59
2021/07/26 16:04:26;;;;;;;5.60;5.10;;;26.60;80.80;;;;;;5007050;28;20499;-58
2021/07/26 16:06:53;;;;;;;5.93;5.30;;;26.40;79.70;;;;;;5008521;28;20944;-57
2021/07/26 16:09:22;;;;;;;4.67;4.27;;;26.00;78.60;;;;;;5011002;28;20881;-56
2021/07/26 16:11:49;;;;;;;5.40;5.00;;;25.30;81.40;;;;;;5019599;28;20471;-57
2021/07/26 16:14:19;;;;;;;5.37;4.77;;;25.30;82.40;;;;;;5004218;28;20949;-59
2021/07/26 18:05:47;;;;;;;6.20;5.53;;;22.10;99.90;;;;;;4207221;23;20493;-60
2021/07/26 18:08:15;;;;;;;7.23;6.50;;;22.00;99.90;;;;;;5004231;28;20504;-58
2021/07/26 18:10:43;;;;;;;8.13;5.60;;;21.90;99.90;;;;;;5014019;28;20464;-58
2021/07/26 18:13:10;;;;;;;6.37;5.33;;;21.80;99.90;;;;;;5015879;28;20468;-59
2021/07/26 18:15:41;;;;;;;6.30;5.70;;;21.70;99.90;;;;;;4998324;28;20871;-56
2021/07/26 18:18:11;;;;;;;5.93;5.50;;;21.70;99.90;;;;;;4998494;28;20555;-57
2021/07/26 18:20:41;;;;;;;7.47;6.87;;;21.80;99.90;;;;;;4997622;28;20475;-58
2021/07/26 18:23:31;;;;;;;6.27;5.53;;;21.80;99.90;;;;;;5011090;28;20491;-55
2021/07/26 18:26:08;;;;;;;6.80;5.27;;;21.80;99.90;;;;;;5018006;28;20467;-57
2021/07/26 18:28:35;;;;;;;6.03;5.53;;;21.70;99.90;;;;;;5017706;28;20490;-58
2021/07/26 18:31:03;;;;;;;6.10;5.60;;;21.50;99.90;;;;;;5017895;28;20456;-57
2021/07/26 18:33:37;;;;;;;6.00;5.50;;;21.50;99.90;;;;;;5018075;28;20873;-55
2021/07/26 18:36:06;;;;;;;6.87;6.27;;;21.40;99.90;;;;;;5017741;28;20443;-57
2021/07/26 18:38:39;;;;;;;6.63;5.70;;;21.20;99.90;;;;;;5016795;28;20460;-54
2021/07/26 18:41:06;;;;;;;7.43;5.73;;;21.20;99.90;;;;;;5017439;28;20463;-58
2021/07/26 18:43:37;;;;;;;5.47;5.07;;;21.10;99.90;;;;;;5017738;28;20496;-56
2021/07/26 18:46:07;;;;;;;5.90;5.40;;;21.00;99.90;;;;;;5017484;28;20780;-53
2021/07/26 18:48:46;;;;;;;6.23;5.73;;;20.80;99.90;;;;;;5017385;28;20491;-53
2021/07/26 18:51:21;;;;;;;7.40;5.40;;;20.70;99.90;;;;;;5017181;28;20503;-51
2021/07/26 18:53:50;;;;;;;5.20;4.77;;;20.60;99.90;;;;;;5017423;28;20492;-56
2021/07/26 18:56:20;;;;;;;8.43;6.43;;;20.60;99.90;;;;;;5017724;28;20463;-57
2021/07/26 18:58:47;;;;;;;6.20;5.60;;;20.50;99.90;;;;;;5017363;28;20460;-57
2021/07/26 19:01:24;;;;;;;6.47;5.77;;;20.50;99.90;;;;;;5017039;28;20446;-54
2021/07/26 19:03:51;;;;;;;5.67;5.17;;;20.50;99.90;;;;;;5008631;28;20492;-54
2021/07/26 19:06:20;;;;;;;5.93;5.40;;;20.50;99.90;;;;;;5014115;28;20828;-58
2021/07/26 19:08:49;;;;;;;5.73;5.23;;;20.50;99.90;;;;;;5017028;28;20432;-56
2021/07/26 19:11:16;;;;;;;5.50;5.10;;;20.50;99.90;;;;;;5017086;28;20908;-52
2021/07/26 19:13:43;;;;;;;6.03;5.03;;;20.40;99.90;;;;;;5016720;28;20456;-54
2021/07/26 19:16:10;;;;;;;5.17;4.67;;;20.20;99.90;;;;;;5017300;28;20464;-55
2021/07/26 19:18:40;;;;;;;5.23;4.77;;;20.10;99.90;;;;;;5018095;28;20464;-58
2021/07/26 19:21:07;;;;;;;4.73;4.43;;;20.00;99.90;;;;;;5020596;28;20470;-56
2021/07/26 19:23:34;;;;;;;6.30;5.80;;;19.90;99.90;;;;;;5020686;28;20586;-52
2021/07/26 19:26:06;;;;;;;5.23;4.83;;;19.80;99.90;;;;;;5020945;28;20445;-55
2021/07/26 19:28:37;;;;;;;5.30;4.77;;;19.80;99.90;;;;;;5020964;28;20472;-57
2021/07/26 19:31:08;;;;;;;5.33;4.93;;;19.70;99.90;;;;;;5020848;28;20470;-56
2021/07/26 19:33:36;;;;;;;5.43;4.93;;;19.60;99.90;;;;;;5020556;28;20464;-55
2021/07/26 19:36:04;;;;;;;5.00;4.50;;;19.50;99.90;;;;;;5020780;28;20490;-57
2021/07/26 19:38:31;;;;;;;4.90;4.10;;;19.40;99.90;;;;;;5020525;28;20820;-56
2021/07/26 19:40:58;;;;;;;5.47;5.00;;;19.30;99.90;;;;;;5020662;28;20900;-55
2021/07/26 19:43:27;;;;;;;5.30;4.80;;;19.20;99.90;;;;;;5020706;28;20500;-57
2021/07/26 19:45:56;;;;;;;5.60;5.10;;;19.20;99.90;;;;;;5020730;28;20529;-56
2021/07/26 20:57:58;;;;;;;5.73;5.27;;;18.70;99.90;;;;;;5277660;23;20713;-59
2021/07/26 21:00:28;;;;;;;5.93;5.53;;;18.70;99.90;;;;;;5000433;28;20499;-57
2021/07/26 21:02:55;;;;;;;6.20;5.70;;;18.60;99.90;;;;;;4995594;28;20926;-59
2021/07/26 21:05:24;;;;;;;5.93;5.43;;;18.60;99.90;;;;;;4978800;28;20456;-58
2021/07/26 21:07:52;;;;;;;8.07;6.03;;;18.60;99.90;;;;;;4979979;28;20457;-59
2021/07/26 21:10:25;;;;;;;6.70;6.20;;;18.60;99.90;;;;;;4979996;28;20548;-59
2021/07/26 21:12:54;;;;;;;6.07;5.47;;;18.60;99.90;;;;;;4979886;28;20433;-59
2021/07/26 21:15:28;;;;;;;6.70;6.10;;;18.60;99.90;;;;;;4985559;28;20484;-59
2021/07/26 21:18:02;;;;;;;5.57;5.00;;;18.50;99.90;;;;;;4997792;28;20454;-59
2021/07/26 21:20:30;;;;;;;8.40;7.60;;;18.50;99.90;;;;;;5004625;28;20440;-59
2021/07/26 21:23:00;;;;;;;7.57;6.53;;;18.40;99.90;;;;;;5014631;28;20488;-59
2021/07/26 21:25:27;;;;;;;7.37;6.67;;;18.50;99.90;;;;;;5017559;28;20920;-57
2021/07/26 21:28:01;;;;;;;7.27;6.67;;;18.40;99.90;;;;;;5018013;28;20439;-56
2021/07/26 21:30:29;;;;;;;7.80;6.23;;;18.30;99.90;;;;;;5018195;28;20464;-57
2021/07/26 21:32:57;;;;;;;7.13;6.53;;;18.20;99.90;;;;;;5018329;28;20526;-60
2021/07/26 21:35:30;;;;;;;9.57;6.73;;;18.20;99.90;;;;;;5018280;28;20504;-59
2021/07/26 21:38:01;;;;;;;7.30;6.60;;;18.20;99.90;;;;;;5017058;28;20881;-59